Sibi Weather



Sibi's Current Weather

Temprature 25.976o clear sky

clear sky

Rain: 0 %

Min Temprature25.976o
Max Temprature25.976o
Humidity32
Wind Speed0.67 m/h
Sun Rise05:56:12
Sun Set18:58:00
Current Time: 21-Apr-2019 05:43:51
Lat/Lon: 29.55, 67.88




Sibi's Geo Location



Sibi's Weather Forecast

Time Overall Temp Min Temp Max Temp Humidity Wind Speed Rain
21-Apr-2019 (Sun)
08:00:00 clear sky 30.270 30.269 30.270 20 1.34 m/h 0 %
11:00:00 clear sky 33.650 33.650 33.650 16 1.92 m/h 0 %
14:00:00 clear sky 36.150 36.150 36.150 14 3.14 m/h 0 %
17:00:00 clear sky 36.550 36.550 36.550 14 3.77 m/h 0 %
20:00:00 clear sky 33.350 33.350 33.350 20 0.92 m/h 0 %
23:00:00 clear sky 31.760 31.760 31.760 21 2.13 m/h 0 %
22-Apr-2019 (Mon)
02:00:00 clear sky 29.770 29.770 29.770 24 1.57 m/h 0 %
05:00:00 clear sky 28.254 28.254 28.254 24 1.29 m/h 0 %
08:00:00 clear sky 32.436 32.436 32.436 15 1.61 m/h 0 %
11:00:00 clear sky 36.120 36.120 36.120 11 1.27 m/h 0 %
14:00:00 clear sky 38.515 38.515 38.515 9 2.49 m/h 0 %
17:00:00 clear sky 38.531 38.531 38.531 8 3.43 m/h 0 %
20:00:00 clear sky 35.050 35.050 35.050 13 1.76 m/h 0 %
23:00:00 scattered clouds 33.496 33.496 33.496 14 2.26 m/h 0 %
23-Apr-2019 (Tue)
02:00:00 broken clouds 31.177 31.177 31.177 16 1.62 m/h 0 %
05:00:00 scattered clouds 29.546 29.546 29.546 18 1.33 m/h 0 %
08:00:00 clear sky 33.967 33.967 33.967 12 1.19 m/h 0 %
11:00:00 clear sky 37.250 37.250 37.250 9 1.67 m/h 0 %
14:00:00 broken clouds 39.250 39.250 39.250 8 3.55 m/h 0 %
17:00:00 broken clouds 38.950 38.950 38.950 9 4.26 m/h 0 %
20:00:00 overcast clouds 36.428 36.428 36.428 12 2.87 m/h 0 %
23:00:00 light rain 32.850 32.850 32.850 21 1.28 m/h 106 %
24-Apr-2019 (Wed)
02:00:00 light rain 31.882 31.882 31.882 20 1.63 m/h 13 %
05:00:00 overcast clouds 31.594 31.594 31.594 23 1.49 m/h 0 %
08:00:00 light rain 32.150 32.150 32.150 22 0.77 m/h 75 %
11:00:00 light rain 35.509 35.509 35.509 18 1.74 m/h 131 %
14:00:00 few clouds 37.550 37.550 37.550 15 3.66 m/h 0 %
17:00:00 light rain 35.850 35.850 35.850 18 6.06 m/h 69 %
20:00:00 clear sky 33.555 33.555 33.555 20 2.08 m/h 0 %
23:00:00 clear sky 31.345 31.345 31.345 20 2.52 m/h 0 %
25-Apr-2019 (Thu)
02:00:00 clear sky 29.150 29.150 29.150 22 2.41 m/h 0 %
05:00:00 clear sky 27.302 27.302 27.302 24 2.09 m/h 0 %
08:00:00 clear sky 29.720 29.720 29.720 19 2.14 m/h 0 %
11:00:00 clear sky 33.090 33.090 33.090 14 1.08 m/h 0 %
14:00:00 clear sky 35.350 35.350 35.350 14 3.61 m/h 0 %
17:00:00 clear sky 35.511 35.511 35.511 15 4.33 m/h 0 %
20:00:00 clear sky 33.425 33.425 33.425 21 0.91 m/h 0 %
23:00:00 clear sky 31.543 31.543 31.543 18 2.46 m/h 0 %
26-Apr-2019 (Fri)
02:00:00 clear sky 29.332 29.332 29.332 18 2.19 m/h 0 %
05:00:00 clear sky 27.206 27.206 27.206 18 1.99 m/h 0 %

Famous Cities (60)